Time;durP1;ratioP1;P1;durP2;ratioP2;P2;SDS_P1;SDS_P2;PMS_P1;PMS_P2;Temp;Humidity;BMP_temperature;BMP_pressure;BME280_temperature;BME280_humidity;BME280_pressure;Samples;Min_cycle;Max_cycle;Signal;HPM_P1;HPM_P2
2022/12/26 00:00:55;;;;;;;0.60;0.40;;;18.50;70.90;;;;;;5049843;28;20409;-22
2022/12/26 00:03:21;;;;;;;0.40;0.40;;;18.40;70.90;;;;;;5051973;28;20040;-24
2022/12/26 00:05:47;;;;;;;0.40;0.40;;;18.40;71.10;;;;;;5049318;28;20102;-21
2022/12/26 00:08:12;;;;;;;0.30;0.30;;;18.40;71.70;;;;;;5052836;28;20041;-21
2022/12/26 00:10:38;;;;;;;0.40;0.40;;;18.50;70.90;;;;;;5048833;28;20041;-20
2022/12/26 00:13:04;;;;;;;0.20;0.20;;;18.50;70.90;;;;;;5047688;28;20044;-21
2022/12/26 00:15:29;;;;;;;0.20;0.20;;;18.40;70.90;;;;;;5050188;28;20129;-22
2022/12/26 00:17:55;;;;;;;0.30;0.30;;;18.40;71.20;;;;;;5048386;28;20079;-30
2022/12/26 00:20:20;;;;;;;0.32;0.32;;;18.30;71.40;;;;;;5047074;28;20065;-21
2022/12/26 00:22:46;;;;;;;0.47;0.47;;;18.40;71.20;;;;;;5054340;28;20049;-21
2022/12/26 00:25:12;;;;;;;0.32;0.32;;;18.30;71.60;;;;;;5047629;28;20099;-21
2022/12/26 00:27:37;;;;;;;0.50;0.50;;;18.30;71.70;;;;;;5052328;28;20425;-21
2022/12/26 00:30:03;;;;;;;0.80;0.30;;;18.30;71.60;;;;;;5044729;28;20111;-19
2022/12/26 00:32:29;;;;;;;0.40;0.35;;;18.30;71.60;;;;;;5053005;28;20040;-18
2022/12/26 00:34:54;;;;;;;0.77;0.30;;;18.10;72.10;;;;;;5054863;28;20063;-18
2022/12/26 00:37:20;;;;;;;0.30;0.30;;;18.20;72.20;;;;;;5040486;28;20079;-18
2022/12/26 00:39:45;;;;;;;0.40;0.40;;;18.10;72.40;;;;;;5047544;28;20508;-18
2022/12/26 00:42:11;;;;;;;0.40;0.40;;;18.10;72.60;;;;;;5059583;28;20079;-18
2022/12/26 00:44:36;;;;;;;0.30;0.30;;;18.00;72.80;;;;;;5064546;28;20580;-17
2022/12/26 00:47:02;;;;;;;0.30;0.30;;;18.00;73.00;;;;;;5066644;28;20127;-17
2022/12/26 00:49:28;;;;;;;0.40;0.40;;;18.10;72.80;;;;;;5067645;28;20043;-17
2022/12/26 00:51:54;;;;;;;0.30;0.30;;;18.00;73.30;;;;;;5070535;28;20056;-19
2022/12/26 00:54:20;;;;;;;0.38;0.38;;;18.10;73.10;;;;;;5067808;28;20044;-18
2022/12/26 00:56:45;;;;;;;1.60;0.55;;;18.40;72.70;;;;;;5071665;28;20404;-17
2022/12/26 00:59:11;;;;;;;0.30;0.30;;;18.30;72.60;;;;;;5071464;28;20089;-26
2022/12/26 01:01:37;;;;;;;0.32;0.32;;;18.50;72.00;;;;;;5052619;28;20524;-19
2022/12/26 01:04:03;;;;;;;0.40;0.40;;;18.50;71.40;;;;;;5071294;28;20123;-29
2022/12/26 01:06:29;;;;;;;0.40;0.40;;;18.50;71.30;;;;;;5070256;28;20056;-20
2022/12/26 01:08:54;;;;;;;0.40;0.40;;;18.50;71.30;;;;;;5063788;28;20033;-19
2022/12/26 01:11:38;;;;;;;0.60;0.50;;;18.60;71.60;;;;;;5071235;28;20585;-21
2022/12/26 01:14:05;;;;;;;0.60;0.60;;;18.60;71.00;;;;;;5070421;28;20559;-17
2022/12/26 01:16:31;;;;;;;0.57;0.50;;;18.50;71.30;;;;;;5074276;28;20051;-18
2022/12/26 01:18:56;;;;;;;0.43;0.43;;;18.30;71.70;;;;;;5066992;28;20040;-20
2022/12/26 01:21:22;;;;;;;0.65;0.40;;;18.20;72.30;;;;;;5071999;28;20456;-20
2022/12/26 01:23:48;;;;;;;1.27;0.50;;;18.10;72.50;;;;;;5062731;28;20051;-25
2022/12/26 01:26:13;;;;;;;0.30;0.30;;;18.30;72.30;;;;;;5066748;28;20043;-17
2022/12/26 01:28:39;;;;;;;0.43;0.32;;;18.30;72.00;;;;;;5071470;28;20037;-23
2022/12/26 01:31:04;;;;;;;0.30;0.30;;;18.00;72.50;;;;;;5064892;28;20060;-16
2022/12/26 01:33:31;;;;;;;0.60;0.30;;;18.20;72.20;;;;;;5069412;28;20045;-22
2022/12/26 01:35:56;;;;;;;0.43;0.30;;;18.20;71.90;;;;;;5068195;28;20465;-18
2022/12/26 01:38:22;;;;;;;0.20;0.20;;;18.20;71.90;;;;;;5069752;28;20032;-19
2022/12/26 01:40:48;;;;;;;0.20;0.20;;;18.10;72.20;;;;;;5072526;28;20058;-24
2022/12/26 01:43:14;;;;;;;0.30;0.30;;;18.00;72.40;;;;;;5070320;28;20040;-18
2022/12/26 01:45:40;;;;;;;0.40;0.40;;;17.90;72.50;;;;;;5069917;28;20408;-18
2022/12/26 01:48:24;;;;;;;0.30;0.30;;;18.00;72.70;;;;;;5075277;28;20530;-24
2022/12/26 01:50:57;;;;;;;0.28;0.28;;;17.90;72.90;;;;;;5073070;28;20058;-19
2022/12/26 01:53:38;;;;;;;0.30;0.30;;;17.90;72.90;;;;;;5069489;28;20044;-17
2022/12/26 01:56:16;;;;;;;1.08;0.30;;;18.00;72.50;;;;;;5069944;28;20540;-21
2022/12/26 01:58:47;;;;;;;0.90;0.30;;;17.90;72.80;;;;;;5049337;28;20521;-19
2022/12/26 02:01:13;;;;;;;0.40;0.40;;;17.90;72.60;;;;;;5051260;28;20044;-17
2022/12/26 02:06:23;;;;;;;1.48;0.40;;;17.90;72.50;;;;;;5062376;28;20412;-17
2022/12/26 02:08:49;;;;;;;0.20;0.20;;;18.00;72.50;;;;;;5052673;28;20029;-18
2022/12/26 02:11:30;;;;;;;0.30;0.30;;;18.00;72.30;;;;;;5070987;28;20047;-17
2022/12/26 02:13:56;;;;;;;0.40;0.20;;;17.90;72.50;;;;;;5052702;28;20548;-17
2022/12/26 02:16:21;;;;;;;1.20;0.28;;;17.70;73.00;;;;;;5054394;28;20112;-17
2022/12/26 02:18:47;;;;;;;0.32;0.32;;;17.70;73.30;;;;;;5068693;28;20430;-18
2022/12/26 02:21:30;;;;;;;0.38;0.38;;;17.60;73.60;;;;;;5072462;28;20087;-22
2022/12/26 02:24:08;;;;;;;0.28;0.28;;;17.70;73.40;;;;;;5073877;28;20040;-17
2022/12/26 02:26:37;;;;;;;0.20;0.20;;;17.70;73.20;;;;;;5071890;28;20056;-18
2022/12/26 02:29:38;;;;;;;0.55;0.38;;;17.70;73.10;;;;;;5072908;28;20523;-19
2022/12/26 02:32:51;;;;;;;0.43;0.43;;;17.60;73.40;;;;;;5073379;28;20071;-17
2022/12/26 02:35:46;;;;;;;0.30;0.30;;;17.60;73.70;;;;;;5036970;28;20041;-20
2022/12/26 02:38:46;;;;;;;0.32;0.32;;;17.50;74.00;;;;;;5063421;28;20047;-17
2022/12/26 02:41:32;;;;;;;0.50;0.40;;;17.50;74.00;;;;;;5074267;28;20408;-17
2022/12/26 02:47:01;;;;;;;0.32;0.32;;;17.50;74.20;;;;;;5078050;28;20049;-20
2022/12/26 02:47:23;;;;;;;0.20;0.20;;;17.50;74.00;;;;;;5072571;28;20130;-17
2022/12/26 03:15:20;;;;;;;0.20;0.20;;;17.50;73.80;;;;;;4989744;28;20632;-20
2022/12/26 03:17:53;;;;;;;0.88;0.40;;;17.60;73.60;;;;;;4987282;28;20522;-17
2022/12/26 03:20:36;;;;;;;0.40;0.30;;;17.60;73.60;;;;;;5006451;28;20306;-21
2022/12/26 03:23:12;;;;;;;0.40;0.28;;;17.50;74.00;;;;;;4978283;28;20109;-17
2022/12/26 03:28:36;;;;;;;0.40;0.40;;;17.40;74.10;;;;;;5050222;28;20082;-17
2022/12/26 03:31:06;;;;;;;0.20;0.20;;;17.40;73.90;;;;;;5075594;28;20139;-18
2022/12/26 03:36:33;;;;;;;0.20;0.20;;;17.50;74.00;;;;;;5060998;28;20098;-17
2022/12/26 03:39:20;;;;;;;0.22;0.20;;;17.40;74.00;;;;;;5073786;28;20085;-22
2022/12/26 04:19:57;;;;;;;0.35;0.20;;;17.50;73.70;;;;;;5055075;28;20047;-17
2022/12/26 04:45:08;;;;;;;0.00;0.00;;;17.50;73.20;;;;;;5068302;28;20120;-17
2022/12/26 04:47:33;;;;;;;0.30;0.15;;;17.60;73.00;;;;;;5067691;28;20135;-19
2022/12/26 04:50:11;;;;;;;0.30;0.30;;;17.60;73.00;;;;;;5054092;28;20121;-20
2022/12/26 04:52:58;;;;;;;0.60;0.30;;;17.60;73.00;;;;;;5054653;28;20048;-17
2022/12/26 04:55:28;;;;;;;0.13;0.13;;;17.70;72.60;;;;;;5050384;28;20028;-17
2022/12/26 04:57:54;;;;;;;0.20;0.15;;;17.60;72.90;;;;;;5074856;28;20606;-18
2022/12/26 05:00:20;;;;;;;0.10;0.10;;;17.60;72.70;;;;;;5072789;28;20044;-17
2022/12/26 05:09:33;;;;;;;0.38;0.30;;;17.60;72.90;;;;;;5072742;28;20059;-18
2022/12/26 05:11:26;;;;;;;0.35;0.20;;;17.70;72.30;;;;;;5072768;28;20036;-21
2022/12/26 05:13:52;;;;;;;0.35;0.28;;;17.70;72.60;;;;;;5071058;28;20040;-18
2022/12/26 05:30:24;;;;;;;0.52;0.22;;;17.60;72.80;;;;;;5016769;28;20068;-20
2022/12/26 05:35:33;;;;;;;0.40;0.20;;;17.60;72.60;;;;;;5037133;28;20040;-18
2022/12/26 05:37:59;;;;;;;0.20;0.20;;;17.50;72.90;;;;;;4995560;28;20041;-17
2022/12/26 05:40:24;;;;;;;0.20;0.17;;;17.70;72.70;;;;;;5040354;28;20037;-20
2022/12/26 05:42:50;;;;;;;0.10;0.10;;;17.60;72.90;;;;;;5032102;28;20506;-17
2022/12/26 05:45:15;;;;;;;0.10;0.10;;;17.60;72.90;;;;;;5039583;28;20045;-25
2022/12/26 05:47:41;;;;;;;0.20;0.15;;;17.50;73.10;;;;;;5037035;28;20049;-19
2022/12/26 05:50:07;;;;;;;0.20;0.10;;;17.50;73.10;;;;;;5038356;28;20041;-23
2022/12/26 05:52:32;;;;;;;0.47;0.22;;;17.50;73.10;;;;;;5033614;28;20040;-21
2022/12/26 05:54:58;;;;;;;0.20;0.20;;;17.50;73.00;;;;;;5074222;28;20448;-17
2022/12/26 05:57:24;;;;;;;0.20;0.20;;;17.50;73.10;;;;;;5071167;28;20040;-22
2022/12/26 05:59:49;;;;;;;0.15;0.10;;;17.50;73.20;;;;;;5070032;28;20040;-20
2022/12/26 06:02:15;;;;;;;0.20;0.20;;;17.70;72.60;;;;;;5075268;28;20556;-18
2022/12/26 06:04:40;;;;;;;0.10;0.00;;;17.70;72.60;;;;;;5074355;28;20183;-17
2022/12/26 06:07:06;;;;;;;0.10;0.10;;;17.60;72.70;;;;;;5072670;28;20050;-17
2022/12/26 06:09:31;;;;;;;0.13;0.10;;;17.50;72.90;;;;;;5076214;28;20028;-17
2022/12/26 06:11:57;;;;;;;0.22;0.20;;;17.60;73.00;;;;;;5068231;28;20524;-18
2022/12/26 06:14:23;;;;;;;0.30;0.10;;;17.60;73.00;;;;;;5068370;28;20052;-17
2022/12/26 06:16:48;;;;;;;0.22;0.20;;;17.60;72.70;;;;;;5070676;28;20055;-19
2022/12/26 06:19:14;;;;;;;0.25;0.10;;;17.60;73.00;;;;;;5071739;28;20106;-20
2022/12/26 06:21:39;;;;;;;0.20;0.20;;;17.60;72.70;;;;;;5064028;28;20048;-21
2022/12/26 06:24:05;;;;;;;0.30;0.10;;;17.60;72.90;;;;;;5070746;28;20055;-23
2022/12/26 06:26:31;;;;;;;0.20;0.15;;;17.50;72.90;;;;;;5070744;28;20412;-18
2022/12/26 06:28:56;;;;;;;0.73;0.10;;;17.60;72.90;;;;;;5069169;28;20489;-18
2022/12/26 06:31:22;;;;;;;0.15;0.10;;;17.60;73.10;;;;;;5070286;28;20036;-18
2022/12/26 06:33:54;;;;;;;0.22;0.22;;;17.50;73.10;;;;;;5075654;28;20511;-18
2022/12/26 06:36:21;;;;;;;0.20;0.20;;;17.50;73.40;;;;;;5076196;28;20554;-20
2022/12/26 06:38:47;;;;;;;0.25;0.10;;;17.50;73.30;;;;;;5074070;28;20051;-17
2022/12/26 06:41:14;;;;;;;0.52;0.20;;;17.50;73.20;;;;;;5073130;28;20037;-19
2022/12/26 06:43:40;;;;;;;0.13;0.10;;;17.50;73.30;;;;;;5048684;28;20146;-21
2022/12/26 06:46:06;;;;;;;0.10;0.10;;;17.50;73.20;;;;;;5046791;28;20056;-18
2022/12/26 06:48:32;;;;;;;0.30;0.10;;;17.50;73.20;;;;;;5050162;28;20536;-22
2022/12/26 06:51:02;;;;;;;0.40;0.20;;;17.50;73.00;;;;;;5049769;28;20040;-22
2022/12/26 06:53:28;;;;;;;0.20;0.20;;;17.50;73.10;;;;;;5046664;28;20055;-18
2022/12/26 06:55:54;;;;;;;0.30;0.17;;;17.50;73.00;;;;;;5048653;28;20049;-19
2022/12/26 06:58:20;;;;;;;0.20;0.10;;;17.50;73.00;;;;;;5056672;28;20067;-18
2022/12/26 07:00:45;;;;;;;0.40;0.20;;;17.50;72.80;;;;;;5045857;28;20131;-18
2022/12/26 07:03:11;;;;;;;0.20;0.20;;;17.60;72.80;;;;;;5048494;28;20170;-21
2022/12/26 07:05:37;;;;;;;0.38;0.10;;;17.60;72.90;;;;;;5048171;28;20052;-18
2022/12/26 07:08:02;;;;;;;0.22;0.20;;;17.60;73.10;;;;;;5047780;28;20059;-19
2022/12/26 07:10:28;;;;;;;0.30;0.30;;;17.50;72.80;;;;;;5048727;28;20214;-22
2022/12/26 07:12:54;;;;;;;0.30;0.30;;;17.40;73.20;;;;;;4695026;28;9999637;-21
2022/12/26 07:15:19;;;;;;;0.40;0.20;;;17.40;73.60;;;;;;5045984;28;20566;-17
2022/12/26 07:17:45;;;;;;;0.47;0.28;;;17.40;73.40;;;;;;5044759;28;20045;-19
2022/12/26 07:20:11;;;;;;;0.30;0.30;;;17.50;73.20;;;;;;5043643;28;20054;-18
2022/12/26 07:22:37;;;;;;;0.35;0.30;;;17.60;72.90;;;;;;5047959;28;20051;-18
2022/12/26 07:25:02;;;;;;;0.30;0.20;;;17.70;72.30;;;;;;5043410;28;20414;-17
2022/12/26 07:27:28;;;;;;;0.30;0.10;;;17.80;72.20;;;;;;5045486;28;20139;-17
2022/12/26 07:29:54;;;;;;;0.28;0.10;;;17.60;73.10;;;;;;5040403;28;20060;-18
2022/12/26 07:32:19;;;;;;;0.20;0.10;;;17.60;72.80;;;;;;5041882;28;20140;-17
2022/12/26 07:34:45;;;;;;;0.22;0.20;;;17.50;73.10;;;;;;5040104;28;20510;-20
2022/12/26 07:37:10;;;;;;;0.28;0.10;;;17.50;73.30;;;;;;5043171;28;20147;-17
2022/12/26 07:39:36;;;;;;;0.20;0.20;;;17.60;72.90;;;;;;5044095;28;20051;-17
2022/12/26 07:42:03;;;;;;;0.32;0.20;;;17.60;73.00;;;;;;5046511;28;20044;-23
2022/12/26 07:44:29;;;;;;;1.67;0.20;;;17.60;72.90;;;;;;5069942;28;20087;-19
2022/12/26 07:46:55;;;;;;;0.63;0.22;;;17.60;73.10;;;;;;5068711;28;20418;-17
2022/12/26 07:49:22;;;;;;;0.35;0.15;;;17.60;73.10;;;;;;5066562;28;20045;-18
2022/12/26 07:51:48;;;;;;;0.70;0.28;;;17.60;73.20;;;;;;5070068;28;20163;-18
2022/12/26 07:54:13;;;;;;;0.32;0.30;;;17.70;72.50;;;;;;5060695;28;20044;-19
2022/12/26 07:56:39;;;;;;;0.82;0.38;;;17.70;72.30;;;;;;5065980;28;20035;-16
2022/12/26 07:59:05;;;;;;;1.40;0.10;;;17.60;72.70;;;;;;5064843;28;20045;-16
2022/12/26 08:01:30;;;;;;;0.30;0.15;;;17.70;73.30;;;;;;5065982;28;20041;-20
2022/12/26 08:03:56;;;;;;;0.70;0.20;;;17.60;73.40;;;;;;5073485;28;20067;-17
2022/12/26 08:06:22;;;;;;;0.28;0.20;;;17.60;74.10;;;;;;5072718;28;20468;-20
2022/12/26 08:08:47;;;;;;;0.47;0.25;;;17.60;73.30;;;;;;5074616;28;20197;-17
2022/12/26 08:11:14;;;;;;;0.40;0.20;;;17.60;73.50;;;;;;5064668;28;20044;-17
2022/12/26 08:13:40;;;;;;;1.17;0.28;;;17.50;73.90;;;;;;5075435;28;20040;-23
2022/12/26 08:16:06;;;;;;;1.65;0.25;;;17.50;73.80;;;;;;5070572;28;20457;-17
2022/12/26 08:18:32;;;;;;;1.63;0.20;;;17.50;73.90;;;;;;5071464;28;20570;-20
2022/12/26 08:20:57;;;;;;;0.90;0.20;;;17.50;73.70;;;;;;5071348;28;20037;-18
2022/12/26 08:23:23;;;;;;;0.17;0.17;;;17.40;73.80;;;;;;5073489;28;20052;-19
2022/12/26 08:25:48;;;;;;;0.55;0.30;;;17.40;73.80;;;;;;5069025;28;20460;-17
2022/12/26 08:28:14;;;;;;;0.63;0.30;;;17.40;74.10;;;;;;5071153;28;20040;-26
2022/12/26 08:30:40;;;;;;;1.02;0.50;;;17.40;74.20;;;;;;5071283;28;20052;-17
2022/12/26 08:33:06;;;;;;;1.10;0.40;;;17.30;74.50;;;;;;5074288;28;20040;-17
2022/12/26 08:35:33;;;;;;;1.55;0.32;;;17.30;75.30;;;;;;5078455;28;20052;-19
2022/12/26 08:38:00;;;;;;;0.28;0.17;;;17.50;74.40;;;;;;5072283;28;20063;-25
2022/12/26 08:40:26;;;;;;;0.70;0.22;;;17.40;74.90;;;;;;5072713;28;20158;-17
2022/12/26 08:42:51;;;;;;;1.00;0.32;;;17.50;74.10;;;;;;5070248;28;20052;-17
2022/12/26 08:45:17;;;;;;;0.32;0.22;;;17.40;74.20;;;;;;5067573;28;20044;-20
2022/12/26 08:47:42;;;;;;;1.05;0.25;;;17.40;74.30;;;;;;5067796;28;20464;-18
2022/12/26 08:50:08;;;;;;;1.15;0.30;;;17.40;74.60;;;;;;5069530;28;20078;-17
2022/12/26 08:52:34;;;;;;;1.27;0.50;;;17.40;74.30;;;;;;5072492;28;20066;-19
2022/12/26 08:55:00;;;;;;;0.90;0.30;;;17.40;74.40;;;;;;5073240;28;20039;-21
2022/12/26 08:57:26;;;;;;;0.77;0.35;;;17.40;74.30;;;;;;5078084;28;20089;-16
2022/12/26 08:59:51;;;;;;;0.80;0.38;;;17.40;74.50;;;;;;5070341;28;20028;-18
2022/12/26 09:02:17;;;;;;;2.20;0.32;;;17.30;74.70;;;;;;5071403;28;20139;-19
2022/12/26 09:04:43;;;;;;;0.47;0.30;;;17.30;74.80;;;;;;5073057;28;20039;-18
2022/12/26 09:07:08;;;;;;;3.15;0.50;;;17.40;74.50;;;;;;5072464;28;20489;-26
2022/12/26 09:09:34;;;;;;;0.90;0.63;;;17.40;74.90;;;;;;5072641;28;20056;-17
2022/12/26 09:11:59;;;;;;;1.10;0.60;;;17.40;75.50;;;;;;5071413;28;20108;-17
2022/12/26 09:14:25;;;;;;;1.23;0.68;;;17.40;74.60;;;;;;5073223;28;20413;-17
2022/12/26 09:16:52;;;;;;;1.88;0.73;;;17.40;74.70;;;;;;5070269;28;20040;-17
2022/12/26 09:19:19;;;;;;;0.98;0.55;;;17.30;75.20;;;;;;5058505;28;20517;-17
2022/12/26 09:21:45;;;;;;;3.08;0.70;;;17.20;75.50;;;;;;5055257;28;20043;-17
2022/12/26 09:24:12;;;;;;;1.38;0.60;;;17.30;75.20;;;;;;5067766;28;20303;-22
2022/12/26 09:26:38;;;;;;;1.23;0.57;;;17.30;75.10;;;;;;5074017;28;20484;-20
2022/12/26 09:29:03;;;;;;;3.63;1.08;;;17.30;75.00;;;;;;5066447;28;20036;-20
2022/12/26 09:31:30;;;;;;;1.67;0.60;;;17.30;75.10;;;;;;5070431;28;20040;-21
2022/12/26 09:33:56;;;;;;;1.45;0.50;;;17.30;75.10;;;;;;5064593;28;20528;-18
2022/12/26 09:36:25;;;;;;;1.02;0.50;;;17.20;75.10;;;;;;5063936;28;20048;-19
2022/12/26 09:38:51;;;;;;;0.60;0.60;;;17.30;74.90;;;;;;5069764;28;20059;-20
2022/12/26 09:41:28;;;;;;;1.13;0.50;;;17.20;75.10;;;;;;5067353;28;20513;-17
2022/12/26 09:44:03;;;;;;;0.93;0.40;;;17.30;74.80;;;;;;5068252;28;20043;-17
2022/12/26 09:46:46;;;;;;;1.27;0.60;;;17.40;74.60;;;;;;5066793;28;20102;-18
2022/12/26 09:49:20;;;;;;;1.98;0.75;;;17.40;74.60;;;;;;4716263;28;10000122;-17
2022/12/26 09:51:51;;;;;;;0.98;0.60;;;17.40;74.50;;;;;;5049460;28;20048;-17
2022/12/26 09:54:30;;;;;;;1.08;0.77;;;17.40;74.40;;;;;;5069043;28;20044;-17
2022/12/26 09:56:56;;;;;;;1.65;0.82;;;17.30;74.60;;;;;;5072716;28;20527;-19
2022/12/26 09:59:23;;;;;;;0.88;0.57;;;17.20;74.80;;;;;;5071831;28;20040;-19
2022/12/26 10:01:49;;;;;;;1.60;0.60;;;17.20;75.80;;;;;;5069640;28;20043;-17
2022/12/26 10:04:23;;;;;;;0.80;0.50;;;17.10;75.00;;;;;;5072890;28;20045;-18
2022/12/26 10:06:56;;;;;;;0.73;0.50;;;17.30;74.80;;;;;;5068819;28;20052;-20
2022/12/26 10:09:37;;;;;;;1.08;0.68;;;17.20;74.80;;;;;;5053202;28;20097;-17
2022/12/26 10:12:02;;;;;;;1.08;0.60;;;17.30;74.50;;;;;;5072376;28;20160;-20
2022/12/26 10:14:48;;;;;;;1.20;0.73;;;17.40;74.30;;;;;;5072542;28;20602;-22
2022/12/26 10:17:36;;;;;;;0.90;0.50;;;17.30;74.50;;;;;;5051163;28;20071;-19
2022/12/26 10:20:20;;;;;;;1.60;0.47;;;17.30;74.50;;;;;;5070768;28;20048;-17
2022/12/26 10:23:10;;;;;;;0.57;0.40;;;17.30;74.40;;;;;;5069319;28;20041;-22
2022/12/26 10:25:41;;;;;;;1.00;0.77;;;17.40;74.20;;;;;;5065402;28;20099;-19
2022/12/26 10:28:16;;;;;;;1.23;0.60;;;17.50;73.60;;;;;;5048944;28;20544;-18
2022/12/26 10:30:41;;;;;;;0.70;0.57;;;17.50;73.80;;;;;;5073693;28;20126;-19
2022/12/26 10:33:20;;;;;;;1.98;0.52;;;17.50;73.80;;;;;;5074810;28;20682;-18
2022/12/26 10:35:46;;;;;;;0.90;0.70;;;17.40;73.80;;;;;;5051553;28;20044;-27
2022/12/26 10:38:33;;;;;;;0.70;0.63;;;17.40;73.70;;;;;;5054722;28;20411;-17
2022/12/26 10:41:10;;;;;;;1.27;0.80;;;17.40;73.80;;;;;;5068521;28;20095;-17
2022/12/26 10:43:39;;;;;;;1.63;0.70;;;17.50;73.90;;;;;;5044856;28;20040;-19
2022/12/26 10:46:36;;;;;;;1.08;0.68;;;17.50;73.60;;;;;;5075083;28;20097;-29
2022/12/26 10:49:01;;;;;;;0.95;0.70;;;17.60;73.40;;;;;;5075503;28;20117;-17
2022/12/26 10:51:27;;;;;;;0.90;0.38;;;17.60;73.20;;;;;;5071166;28;20040;-17
2022/12/26 10:53:52;;;;;;;1.25;0.63;;;17.80;72.50;;;;;;5073764;28;20508;-17
2022/12/26 10:56:18;;;;;;;0.65;0.38;;;18.00;72.20;;;;;;5058236;28;20132;-17
2022/12/26 10:58:44;;;;;;;2.17;0.63;;;18.00;71.70;;;;;;5056748;28;20127;-25
2022/12/26 11:01:36;;;;;;;0.40;0.38;;;18.10;71.80;;;;;;5051948;28;20068;-17
2022/12/26 11:04:03;;;;;;;1.20;0.35;;;17.90;72.10;;;;;;5039484;28;20075;-17
2022/12/26 11:06:51;;;;;;;0.73;0.47;;;18.10;71.70;;;;;;5035114;28;20485;-17
2022/12/26 11:09:39;;;;;;;0.80;0.40;;;18.10;71.40;;;;;;5039315;28;20084;-22
2022/12/26 11:12:41;;;;;;;0.70;0.40;;;18.10;71.50;;;;;;5039485;28;20045;-17
2022/12/26 11:15:30;;;;;;;0.70;0.30;;;18.00;71.80;;;;;;5038085;28;20099;-17
2022/12/26 11:18:08;;;;;;;0.30;0.20;;;18.10;71.80;;;;;;5021235;28;20757;-17
2022/12/26 11:20:34;;;;;;;1.23;0.30;;;18.10;71.70;;;;;;5037955;28;20053;-17
2022/12/26 11:23:12;;;;;;;0.40;0.30;;;18.00;72.10;;;;;;5041260;28;20056;-17
2022/12/26 11:25:50;;;;;;;0.85;0.50;;;18.00;72.20;;;;;;5038696;28;20060;-18
2022/12/26 11:28:28;;;;;;;1.02;0.50;;;18.10;72.10;;;;;;5041226;28;20091;-17
2022/12/26 11:30:54;;;;;;;0.70;0.38;;;18.10;71.90;;;;;;5039432;28;20052;-17
2022/12/26 11:33:22;;;;;;;0.38;0.30;;;18.10;71.80;;;;;;5038243;28;20103;-17
2022/12/26 11:35:52;;;;;;;0.70;0.30;;;18.10;71.80;;;;;;5036885;28;20056;-21
2022/12/26 11:38:43;;;;;;;2.05;0.90;;;18.10;71.90;;;;;;5022611;28;20040;-18
2022/12/26 11:43:55;;;;;;;0.93;0.45;;;18.00;72.00;;;;;;5023021;28;20095;-22
2022/12/26 11:46:20;;;;;;;0.32;0.20;;;17.90;72.70;;;;;;5031576;28;21119;-19
2022/12/26 11:48:48;;;;;;;0.45;0.30;;;17.80;72.50;;;;;;5038995;28;20735;-18
2022/12/26 11:51:14;;;;;;;1.35;0.65;;;18.00;72.20;;;;;;5025983;28;20518;-20
2022/12/26 11:53:39;;;;;;;0.93;0.40;;;18.10;72.10;;;;;;5037894;28;20056;-18
2022/12/26 11:56:05;;;;;;;1.42;0.70;;;18.10;72.30;;;;;;5019350;28;20432;-18
2022/12/26 11:58:32;;;;;;;1.38;0.50;;;18.20;72.20;;;;;;5048773;28;20056;-21
2022/12/26 12:01:00;;;;;;;0.98;0.68;;;18.20;72.30;;;;;;5049105;28;20036;-19
2022/12/26 12:03:36;;;;;;;2.22;0.90;;;18.30;72.80;;;;;;5047875;28;20045;-22
2022/12/26 12:06:20;;;;;;;1.98;1.08;;;18.30;73.60;;;;;;5043660;28;20049;-17
2022/12/26 12:09:04;;;;;;;;;;;18.40;73.20;;;;;;5046770;28;20056;-24
2022/12/26 12:12:07;;;;;;;1.88;0.70;;;18.30;73.20;;;;;;5041514;28;19990;-17
2022/12/26 12:15:01;;;;;;;0.43;0.30;;;18.20;73.40;;;;;;5040344;28;20055;-18
2022/12/26 12:17:40;;;;;;;2.83;0.55;;;18.20;73.40;;;;;;4336654;28;10001524;-18
2022/12/26 12:20:14;;;;;;;0.57;0.40;;;18.20;73.60;;;;;;5003642;28;20540;-18
2022/12/26 12:22:58;;;;;;;0.73;0.50;;;18.20;73.20;;;;;;5014995;28;20054;-19
2022/12/26 12:25:53;;;;;;;1.27;0.70;;;18.20;72.80;;;;;;5025816;28;20056;-19
2022/12/26 12:28:28;;;;;;;0.98;0.40;;;18.30;73.30;;;;;;5017939;28;20057;-19
2022/12/26 12:31:01;;;;;;;1.33;0.43;;;18.30;72.60;;;;;;5029992;28;20036;-19
2022/12/26 12:33:55;;;;;;;0.77;0.40;;;18.40;72.80;;;;;;5014249;28;20056;-20
2022/12/26 12:36:44;;;;;;;0.82;0.40;;;18.40;72.80;;;;;;5009663;28;20045;-19
2022/12/26 12:39:14;;;;;;;1.30;0.63;;;18.40;72.70;;;;;;5008495;28;20045;-19
2022/12/26 12:42:13;;;;;;;0.47;0.47;;;18.30;72.50;;;;;;5013707;28;20036;-19
2022/12/26 12:45:03;;;;;;;0.63;0.43;;;18.40;72.40;;;;;;4995720;28;20069;-18
2022/12/26 12:47:50;;;;;;;3.03;0.55;;;18.40;72.40;;;;;;4996663;28;20041;-18
2022/12/26 12:50:28;;;;;;;1.33;0.60;;;18.30;72.60;;;;;;5014600;28;20174;-18
2022/12/26 12:53:02;;;;;;;0.93;0.45;;;18.30;72.40;;;;;;5016478;28;21186;-22
2022/12/26 12:55:44;;;;;;;0.73;0.40;;;18.20;72.60;;;;;;4997056;28;20481;-21
2022/12/26 12:58:31;;;;;;;3.42;0.70;;;18.30;72.60;;;;;;4997851;28;20045;-18
2022/12/26 13:01:01;;;;;;;0.68;0.38;;;18.40;72.30;;;;;;5000743;28;20497;-20
2022/12/26 13:04:13;;;;;;;1.65;0.63;;;18.40;71.90;;;;;;4997309;28;20059;-19
2022/12/26 13:06:50;;;;;;;0.60;0.22;;;18.50;71.70;;;;;;5009487;28;20146;-18
2022/12/26 13:09:25;;;;;;;0.50;0.25;;;18.40;71.80;;;;;;5014961;28;20049;-21
2022/12/26 13:12:00;;;;;;;0.47;0.45;;;18.40;71.70;;;;;;5005714;28;20053;-22
2022/12/26 13:14:32;;;;;;;1.38;0.57;;;18.30;72.00;;;;;;5008178;28;20037;-19
2022/12/26 13:17:04;;;;;;;0.77;0.43;;;18.30;72.50;;;;;;5023161;28;20150;-17
2022/12/26 13:19:40;;;;;;;1.40;0.45;;;18.30;72.30;;;;;;5022982;28;20044;-19
2022/12/26 13:25:25;;;;;;;1.40;0.60;;;18.20;72.40;;;;;;5041642;28;20091;-23
2022/12/26 13:27:50;;;;;;;1.42;0.60;;;18.10;72.30;;;;;;5023791;28;20107;-19
2022/12/26 13:30:16;;;;;;;0.63;0.40;;;18.10;72.10;;;;;;5020219;28;20459;-19
2022/12/26 13:32:41;;;;;;;0.95;0.70;;;18.30;72.10;;;;;;5044148;28;20507;-19
2022/12/26 13:35:48;;;;;;;1.45;0.65;;;18.30;72.40;;;;;;5021968;28;20486;-19
2022/12/26 13:38:14;;;;;;;2.08;0.32;;;18.30;72.30;;;;;;5017646;28;20437;-20
2022/12/26 13:40:55;;;;;;;0.68;0.35;;;18.30;71.70;;;;;;5043319;28;20044;-22
2022/12/26 13:46:31;;;;;;;0.95;0.40;;;18.10;72.10;;;;;;5065421;28;20039;-21
2022/12/26 13:48:58;;;;;;;0.32;0.30;;;18.10;72.30;;;;;;5089766;28;20052;-20
2022/12/26 13:51:44;;;;;;;0.45;0.40;;;18.10;72.30;;;;;;5063262;28;20064;-20
2022/12/26 13:54:11;;;;;;;0.80;0.60;;;18.10;72.60;;;;;;4695116;28;10000339;-18
2022/12/26 13:56:39;;;;;;;1.15;0.50;;;18.20;72.40;;;;;;5037536;28;20040;-21
2022/12/26 13:59:25;;;;;;;0.95;0.63;;;18.20;72.30;;;;;;5036915;28;20517;-27
2022/12/26 14:01:59;;;;;;;0.98;0.50;;;18.20;72.50;;;;;;5037119;28;20048;-18
2022/12/26 14:04:49;;;;;;;1.20;0.65;;;18.20;73.00;;;;;;5033625;28;20070;-28
2022/12/26 14:07:29;;;;;;;1.08;0.50;;;18.20;72.50;;;;;;5037240;28;20522;-20
2022/12/26 14:10:03;;;;;;;0.88;0.57;;;18.20;72.30;;;;;;5032989;28;20063;-18
2022/12/26 14:12:44;;;;;;;;;;;18.20;72.10;;;;;;5033056;28;20528;-21
2022/12/26 14:15:43;;;;;;;0.82;0.40;;;18.20;72.20;;;;;;5036646;28;20091;-20
2022/12/26 14:18:42;;;;;;;0.60;0.50;;;18.20;72.00;;;;;;5034915;28;20044;-19
2022/12/26 14:21:41;;;;;;;0.73;0.50;;;18.20;71.90;;;;;;5035553;28;20121;-20
2022/12/26 14:24:19;;;;;;;0.80;0.50;;;18.30;71.60;;;;;;5038512;28;20744;-21
2022/12/26 14:27:11;;;;;;;0.80;0.52;;;18.30;71.90;;;;;;5035755;28;20053;-16
2022/12/26 14:29:47;;;;;;;0.77;0.60;;;18.30;71.90;;;;;;5035930;28;20473;-21
2022/12/26 14:32:20;;;;;;;0.90;0.50;;;18.30;71.70;;;;;;5028273;28;20087;-18
2022/12/26 14:34:52;;;;;;;1.15;0.40;;;18.30;71.60;;;;;;5020936;28;20460;-18
2022/12/26 14:37:39;;;;;;;3.65;0.75;;;18.40;71.80;;;;;;5028580;28;20064;-16
2022/12/26 14:40:27;;;;;;;2.47;0.70;;;18.30;72.20;;;;;;5037755;28;20048;-20
2022/12/26 14:43:12;;;;;;;0.38;0.30;;;18.30;71.90;;;;;;5021204;28;20052;-17
2022/12/26 14:45:51;;;;;;;0.63;0.63;;;18.30;71.90;;;;;;5030010;28;20529;-16
2022/12/26 14:48:17;;;;;;;2.85;0.65;;;18.30;72.50;;;;;;5034532;28;20573;-20
2022/12/26 14:50:43;;;;;;;1.35;0.38;;;18.30;72.40;;;;;;5038404;28;21077;-22
2022/12/26 14:53:33;;;;;;;1.50;0.90;;;18.30;72.20;;;;;;5035608;28;20044;-18
2022/12/26 14:56:13;;;;;;;2.03;0.90;;;18.40;72.10;;;;;;5036970;28;23416;-18
2022/12/26 14:58:51;;;;;;;6.80;1.08;;;18.40;72.20;;;;;;5035601;28;21426;-21
2022/12/26 15:01:22;;;;;;;1.58;0.60;;;18.40;72.30;;;;;;5037096;28;20095;-21
2022/12/26 15:03:57;;;;;;;1.30;0.60;;;18.40;72.10;;;;;;5036183;28;20476;-20
2022/12/26 15:06:41;;;;;;;2.20;0.65;;;18.40;72.30;;;;;;5038364;28;20201;-20
2022/12/26 15:09:25;;;;;;;0.80;0.63;;;18.30;72.50;;;;;;5040585;28;20058;-19
2022/12/26 15:12:14;;;;;;;1.67;0.75;;;18.30;72.70;;;;;;5040938;28;20047;-21
2022/12/26 15:14:51;;;;;;;1.73;0.50;;;18.30;72.70;;;;;;4974189;28;20456;-21
2022/12/26 15:17:20;;;;;;;1.13;0.50;;;18.40;72.20;;;;;;4978789;28;20037;-25
2022/12/26 15:20:11;;;;;;;0.70;0.45;;;18.30;72.30;;;;;;4978308;28;20038;-24